sensor_id;sensor_type;location;lat;lon;timestamp;P1;durP1;ratioP1;P2;durP2;ratioP2
5979;SDS011;3016;50.308;8.258;2023-05-07T00:02:03;13.77;;;2.60;;
5979;SDS011;3016;50.308;8.258;2023-05-07T00:05:04;15.83;;;2.43;;
5979;SDS011;3016;50.308;8.258;2023-05-07T00:08:05;13.03;;;1.83;;
5979;SDS011;3016;50.308;8.258;2023-05-07T00:11:06;13.83;;;2.70;;
5979;SDS011;3016;50.308;8.258;2023-05-07T00:14:06;14.53;;;2.80;;
5979;SDS011;3016;50.308;8.258;2023-05-07T00:17:07;16.30;;;2.60;;
5979;SDS011;3016;50.308;8.258;2023-05-07T00:20:08;13.73;;;2.53;;
5979;SDS011;3016;50.308;8.258;2023-05-07T00:23:09;13.80;;;2.40;;
5979;SDS011;3016;50.308;8.258;2023-05-07T00:26:10;14.30;;;2.73;;
5979;SDS011;3016;50.308;8.258;2023-05-07T00:29:11;19.40;;;3.73;;
5979;SDS011;3016;50.308;8.258;2023-05-07T00:32:11;14.47;;;2.70;;
5979;SDS011;3016;50.308;8.258;2023-05-07T00:35:12;15.40;;;3.10;;
5979;SDS011;3016;50.308;8.258;2023-05-07T00:38:13;13.87;;;2.53;;
5979;SDS011;3016;50.308;8.258;2023-05-07T00:41:14;15.33;;;2.87;;
5979;SDS011;3016;50.308;8.258;2023-05-07T00:44:15;14.50;;;2.97;;
5979;SDS011;3016;50.308;8.258;2023-05-07T00:47:16;13.70;;;2.50;;
5979;SDS011;3016;50.308;8.258;2023-05-07T00:50:17;14.50;;;3.13;;
5979;SDS011;3016;50.308;8.258;2023-05-07T00:53:19;16.17;;;3.00;;
5979;SDS011;3016;50.308;8.258;2023-05-07T00:56:21;14.47;;;2.90;;
5979;SDS011;3016;50.308;8.258;2023-05-07T00:59:22;16.63;;;3.53;;
5979;SDS011;3016;50.308;8.258;2023-05-07T01:02:23;14.13;;;2.80;;
5979;SDS011;3016;50.308;8.258;2023-05-07T01:05:24;13.90;;;2.63;;
5979;SDS011;3016;50.308;8.258;2023-05-07T01:08:26;16.60;;;2.87;;
5979;SDS011;3016;50.308;8.258;2023-05-07T01:11:29;16.07;;;2.43;;
5979;SDS011;3016;50.308;8.258;2023-05-07T01:14:30;15.50;;;2.77;;
5979;SDS011;3016;50.308;8.258;2023-05-07T01:17:33;14.47;;;2.60;;
5979;SDS011;3016;50.308;8.258;2023-05-07T01:20:35;15.17;;;2.87;;
5979;SDS011;3016;50.308;8.258;2023-05-07T01:23:36;14.90;;;2.27;;
5979;SDS011;3016;50.308;8.258;2023-05-07T01:26:39;13.00;;;2.30;;
5979;SDS011;3016;50.308;8.258;2023-05-07T01:29:40;14.00;;;2.63;;
5979;SDS011;3016;50.308;8.258;2023-05-07T01:33:03;15.90;;;3.30;;
5979;SDS011;3016;50.308;8.258;2023-05-07T01:36:08;19.60;;;2.90;;
5979;SDS011;3016;50.308;8.258;2023-05-07T01:39:10;14.00;;;3.93;;
5979;SDS011;3016;50.308;8.258;2023-05-07T01:42:11;15.33;;;2.60;;
5979;SDS011;3016;50.308;8.258;2023-05-07T01:45:12;14.20;;;3.10;;
5979;SDS011;3016;50.308;8.258;2023-05-07T01:48:13;15.00;;;3.23;;
5979;SDS011;3016;50.308;8.258;2023-05-07T01:51:15;15.50;;;2.70;;
5979;SDS011;3016;50.308;8.258;2023-05-07T01:54:15;15.50;;;3.40;;
5979;SDS011;3016;50.308;8.258;2023-05-07T01:57:16;17.97;;;3.50;;
5979;SDS011;3016;50.308;8.258;2023-05-07T02:00:17;34.33;;;4.03;;
5979;SDS011;3016;50.308;8.258;2023-05-07T02:03:18;13.90;;;2.70;;
5979;SDS011;3016;50.308;8.258;2023-05-07T02:06:19;15.10;;;3.17;;
5979;SDS011;3016;50.308;8.258;2023-05-07T02:09:20;18.43;;;3.30;;
5979;SDS011;3016;50.308;8.258;2023-05-07T02:12:22;15.13;;;3.37;;
5979;SDS011;3016;50.308;8.258;2023-05-07T02:15:23;14.23;;;3.30;;
5979;SDS011;3016;50.308;8.258;2023-05-07T02:18:23;15.60;;;3.07;;
5979;SDS011;3016;50.308;8.258;2023-05-07T02:21:24;14.80;;;3.00;;
5979;SDS011;3016;50.308;8.258;2023-05-07T02:24:25;15.90;;;2.70;;
5979;SDS011;3016;50.308;8.258;2023-05-07T02:27:26;15.10;;;3.37;;
5979;SDS011;3016;50.308;8.258;2023-05-07T02:30:26;14.60;;;3.40;;
5979;SDS011;3016;50.308;8.258;2023-05-07T02:33:28;14.07;;;2.80;;
5979;SDS011;3016;50.308;8.258;2023-05-07T02:36:29;16.70;;;2.33;;
5979;SDS011;3016;50.308;8.258;2023-05-07T02:39:30;14.80;;;3.10;;
5979;SDS011;3016;50.308;8.258;2023-05-07T02:42:31;13.37;;;2.30;;
5979;SDS011;3016;50.308;8.258;2023-05-07T02:45:32;13.63;;;2.67;;
5979;SDS011;3016;50.308;8.258;2023-05-07T02:48:33;13.73;;;2.70;;
5979;SDS011;3016;50.308;8.258;2023-05-07T02:51:34;14.30;;;2.83;;
5979;SDS011;3016;50.308;8.258;2023-05-07T02:54:35;13.13;;;2.53;;
5979;SDS011;3016;50.308;8.258;2023-05-07T02:57:36;14.17;;;2.57;;
5979;SDS011;3016;50.308;8.258;2023-05-07T03:00:36;13.60;;;2.70;;
5979;SDS011;3016;50.308;8.258;2023-05-07T03:03:37;19.90;;;2.90;;
5979;SDS011;3016;50.308;8.258;2023-05-07T03:06:38;15.10;;;3.03;;
5979;SDS011;3016;50.308;8.258;2023-05-07T03:09:38;14.53;;;2.30;;
5979;SDS011;3016;50.308;8.258;2023-05-07T03:12:39;13.40;;;2.40;;
5979;SDS011;3016;50.308;8.258;2023-05-07T03:15:40;14.30;;;2.50;;
5979;SDS011;3016;50.308;8.258;2023-05-07T03:18:40;13.50;;;2.83;;
5979;SDS011;3016;50.308;8.258;2023-05-07T03:21:41;14.00;;;3.13;;
5979;SDS011;3016;50.308;8.258;2023-05-07T03:24:42;19.93;;;3.00;;
5979;SDS011;3016;50.308;8.258;2023-05-07T03:27:43;13.33;;;2.57;;
5979;SDS011;3016;50.308;8.258;2023-05-07T03:30:43;13.80;;;3.00;;
5979;SDS011;3016;50.308;8.258;2023-05-07T03:33:51;13.87;;;2.67;;
5979;SDS011;3016;50.308;8.258;2023-05-07T03:36:54;14.63;;;2.90;;
5979;SDS011;3016;50.308;8.258;2023-05-07T03:39:55;14.10;;;3.10;;
5979;SDS011;3016;50.308;8.258;2023-05-07T03:42:56;13.87;;;3.10;;
5979;SDS011;3016;50.308;8.258;2023-05-07T03:45:57;13.43;;;2.50;;
5979;SDS011;3016;50.308;8.258;2023-05-07T03:48:58;13.53;;;2.93;;
5979;SDS011;3016;50.308;8.258;2023-05-07T03:51:58;14.40;;;3.10;;
5979;SDS011;3016;50.308;8.258;2023-05-07T03:55:00;15.90;;;3.10;;
5979;SDS011;3016;50.308;8.258;2023-05-07T03:58:01;16.67;;;3.00;;
5979;SDS011;3016;50.308;8.258;2023-05-07T04:01:02;17.27;;;2.70;;
5979;SDS011;3016;50.308;8.258;2023-05-07T04:04:03;13.87;;;2.90;;
5979;SDS011;3016;50.308;8.258;2023-05-07T04:07:04;13.70;;;2.90;;
5979;SDS011;3016;50.308;8.258;2023-05-07T04:10:05;14.40;;;3.33;;
5979;SDS011;3016;50.308;8.258;2023-05-07T04:13:06;15.37;;;3.27;;
5979;SDS011;3016;50.308;8.258;2023-05-07T04:16:07;14.60;;;2.67;;
5979;SDS011;3016;50.308;8.258;2023-05-07T04:19:08;13.97;;;2.97;;
5979;SDS011;3016;50.308;8.258;2023-05-07T04:22:09;14.50;;;3.23;;
5979;SDS011;3016;50.308;8.258;2023-05-07T04:25:10;14.10;;;3.33;;
5979;SDS011;3016;50.308;8.258;2023-05-07T04:28:11;14.00;;;2.90;;
5979;SDS011;3016;50.308;8.258;2023-05-07T04:31:12;14.43;;;3.10;;
5979;SDS011;3016;50.308;8.258;2023-05-07T04:34:13;15.17;;;3.20;;
5979;SDS011;3016;50.308;8.258;2023-05-07T04:37:14;14.20;;;3.10;;
5979;SDS011;3016;50.308;8.258;2023-05-07T04:40:14;16.73;;;3.10;;
5979;SDS011;3016;50.308;8.258;2023-05-07T04:43:15;13.33;;;3.33;;
5979;SDS011;3016;50.308;8.258;2023-05-07T04:46:16;12.67;;;3.10;;
5979;SDS011;3016;50.308;8.258;2023-05-07T04:49:17;11.50;;;2.80;;
5979;SDS011;3016;50.308;8.258;2023-05-07T04:52:18;16.33;;;3.57;;
5979;SDS011;3016;50.308;8.258;2023-05-07T04:55:18;13.63;;;3.33;;
5979;SDS011;3016;50.308;8.258;2023-05-07T04:58:19;22.53;;;3.13;;
5979;SDS011;3016;50.308;8.258;2023-05-07T05:01:20;13.57;;;2.90;;
5979;SDS011;3016;50.308;8.258;2023-05-07T05:04:21;14.30;;;3.20;;
5979;SDS011;3016;50.308;8.258;2023-05-07T05:07:21;13.43;;;2.97;;
5979;SDS011;3016;50.308;8.258;2023-05-07T05:10:22;15.53;;;3.00;;
5979;SDS011;3016;50.308;8.258;2023-05-07T05:13:23;14.40;;;3.67;;
5979;SDS011;3016;50.308;8.258;2023-05-07T05:16:23;14.30;;;3.73;;
5979;SDS011;3016;50.308;8.258;2023-05-07T05:19:24;15.37;;;3.23;;
5979;SDS011;3016;50.308;8.258;2023-05-07T05:22:25;17.40;;;3.70;;
5979;SDS011;3016;50.308;8.258;2023-05-07T05:25:25;13.10;;;3.07;;
5979;SDS011;3016;50.308;8.258;2023-05-07T05:28:27;20.80;;;3.40;;
5979;SDS011;3016;50.308;8.258;2023-05-07T05:31:28;13.10;;;2.90;;
5979;SDS011;3016;50.308;8.258;2023-05-07T05:34:29;13.23;;;2.60;;
5979;SDS011;3016;50.308;8.258;2023-05-07T05:37:29;12.90;;;2.67;;
5979;SDS011;3016;50.308;8.258;2023-05-07T05:40:31;12.80;;;2.90;;
5979;SDS011;3016;50.308;8.258;2023-05-07T05:43:33;13.10;;;3.00;;
5979;SDS011;3016;50.308;8.258;2023-05-07T05:46:34;14.20;;;3.00;;
5979;SDS011;3016;50.308;8.258;2023-05-07T05:49:35;20.07;;;3.83;;
5979;SDS011;3016;50.308;8.258;2023-05-07T05:52:36;13.70;;;3.00;;
5979;SDS011;3016;50.308;8.258;2023-05-07T05:55:36;13.97;;;3.07;;
5979;SDS011;3016;50.308;8.258;2023-05-07T05:58:37;13.80;;;3.13;;
5979;SDS011;3016;50.308;8.258;2023-05-07T06:01:38;13.50;;;3.40;;
5979;SDS011;3016;50.308;8.258;2023-05-07T06:04:39;14.93;;;3.20;;
5979;SDS011;3016;50.308;8.258;2023-05-07T06:07:40;14.30;;;3.53;;
5979;SDS011;3016;50.308;8.258;2023-05-07T06:10:40;12.80;;;2.90;;
5979;SDS011;3016;50.308;8.258;2023-05-07T06:13:41;13.47;;;3.27;;
5979;SDS011;3016;50.308;8.258;2023-05-07T06:16:42;13.80;;;3.10;;
5979;SDS011;3016;50.308;8.258;2023-05-07T06:19:43;12.90;;;2.87;;
5979;SDS011;3016;50.308;8.258;2023-05-07T06:22:43;14.00;;;3.30;;
5979;SDS011;3016;50.308;8.258;2023-05-07T06:25:50;12.50;;;2.60;;
5979;SDS011;3016;50.308;8.258;2023-05-07T06:28:51;13.47;;;3.53;;
5979;SDS011;3016;50.308;8.258;2023-05-07T06:31:52;13.90;;;3.57;;
5979;SDS011;3016;50.308;8.258;2023-05-07T06:34:53;13.87;;;3.70;;
5979;SDS011;3016;50.308;8.258;2023-05-07T06:37:54;13.87;;;3.73;;
5979;SDS011;3016;50.308;8.258;2023-05-07T06:40:55;13.73;;;3.33;;
5979;SDS011;3016;50.308;8.258;2023-05-07T06:43:57;14.90;;;3.47;;
5979;SDS011;3016;50.308;8.258;2023-05-07T06:46:57;14.57;;;3.93;;
5979;SDS011;3016;50.308;8.258;2023-05-07T06:49:58;13.57;;;3.20;;
5979;SDS011;3016;50.308;8.258;2023-05-07T06:52:59;15.60;;;3.90;;
5979;SDS011;3016;50.308;8.258;2023-05-07T06:55:59;13.90;;;3.20;;
5979;SDS011;3016;50.308;8.258;2023-05-07T06:59:01;14.27;;;3.23;;
5979;SDS011;3016;50.308;8.258;2023-05-07T07:02:02;15.67;;;3.13;;
5979;SDS011;3016;50.308;8.258;2023-05-07T07:05:03;15.60;;;3.53;;
5979;SDS011;3016;50.308;8.258;2023-05-07T07:08:04;13.97;;;3.27;;
5979;SDS011;3016;50.308;8.258;2023-05-07T07:11:05;14.93;;;3.23;;
5979;SDS011;3016;50.308;8.258;2023-05-07T07:14:06;14.40;;;2.97;;
5979;SDS011;3016;50.308;8.258;2023-05-07T07:17:07;14.10;;;3.00;;
5979;SDS011;3016;50.308;8.258;2023-05-07T07:20:08;13.00;;;2.77;;
5979;SDS011;3016;50.308;8.258;2023-05-07T07:23:10;13.07;;;2.63;;
5979;SDS011;3016;50.308;8.258;2023-05-07T07:26:11;14.30;;;3.10;;
5979;SDS011;3016;50.308;8.258;2023-05-07T07:29:11;14.10;;;2.70;;
5979;SDS011;3016;50.308;8.258;2023-05-07T07:32:13;13.47;;;2.30;;
5979;SDS011;3016;50.308;8.258;2023-05-07T07:35:14;13.97;;;2.53;;
5979;SDS011;3016;50.308;8.258;2023-05-07T07:38:15;16.10;;;3.37;;
5979;SDS011;3016;50.308;8.258;2023-05-07T07:41:16;13.83;;;2.83;;
5979;SDS011;3016;50.308;8.258;2023-05-07T07:44:17;13.70;;;2.63;;
5979;SDS011;3016;50.308;8.258;2023-05-07T07:47:18;12.70;;;2.57;;
5979;SDS011;3016;50.308;8.258;2023-05-07T07:50:18;12.67;;;2.40;;
5979;SDS011;3016;50.308;8.258;2023-05-07T07:53:19;12.97;;;2.43;;
5979;SDS011;3016;50.308;8.258;2023-05-07T07:56:20;16.37;;;2.50;;
5979;SDS011;3016;50.308;8.258;2023-05-07T07:59:22;12.70;;;2.03;;
5979;SDS011;3016;50.308;8.258;2023-05-07T08:02:22;13.67;;;3.00;;
5979;SDS011;3016;50.308;8.258;2023-05-07T08:05:24;13.37;;;3.30;;
5979;SDS011;3016;50.308;8.258;2023-05-07T08:08:25;15.43;;;3.10;;
5979;SDS011;3016;50.308;8.258;2023-05-07T08:11:25;13.13;;;2.40;;
5979;SDS011;3016;50.308;8.258;2023-05-07T08:14:26;15.33;;;2.93;;
5979;SDS011;3016;50.308;8.258;2023-05-07T08:17:28;14.97;;;3.40;;
5979;SDS011;3016;50.308;8.258;2023-05-07T08:20:29;12.80;;;2.40;;
5979;SDS011;3016;50.308;8.258;2023-05-07T08:23:30;13.67;;;2.97;;
5979;SDS011;3016;50.308;8.258;2023-05-07T08:26:31;14.07;;;2.90;;
5979;SDS011;3016;50.308;8.258;2023-05-07T08:29:32;12.80;;;2.40;;
5979;SDS011;3016;50.308;8.258;2023-05-07T08:32:33;15.23;;;3.00;;
5979;SDS011;3016;50.308;8.258;2023-05-07T08:35:33;19.63;;;3.13;;
5979;SDS011;3016;50.308;8.258;2023-05-07T08:38:35;13.73;;;3.03;;
5979;SDS011;3016;50.308;8.258;2023-05-07T08:41:36;13.87;;;3.00;;
5979;SDS011;3016;50.308;8.258;2023-05-07T08:44:37;12.77;;;2.70;;
5979;SDS011;3016;50.308;8.258;2023-05-07T08:47:40;13.37;;;2.70;;
5979;SDS011;3016;50.308;8.258;2023-05-07T08:50:45;16.20;;;3.20;;
5979;SDS011;3016;50.308;8.258;2023-05-07T08:53:47;13.43;;;2.97;;
5979;SDS011;3016;50.308;8.258;2023-05-07T08:56:49;13.90;;;3.17;;
5979;SDS011;3016;50.308;8.258;2023-05-07T08:59:50;15.40;;;3.00;;
5979;SDS011;3016;50.308;8.258;2023-05-07T09:02:52;14.90;;;3.50;;
5979;SDS011;3016;50.308;8.258;2023-05-07T09:05:53;14.20;;;2.80;;
5979;SDS011;3016;50.308;8.258;2023-05-07T09:08:55;13.50;;;3.10;;
5979;SDS011;3016;50.308;8.258;2023-05-07T09:11:58;13.63;;;2.87;;
5979;SDS011;3016;50.308;8.258;2023-05-07T09:14:59;13.37;;;2.77;;
5979;SDS011;3016;50.308;8.258;2023-05-07T09:18:00;15.50;;;3.17;;
5979;SDS011;3016;50.308;8.258;2023-05-07T09:21:01;17.90;;;3.07;;
5979;SDS011;3016;50.308;8.258;2023-05-07T09:24:02;15.10;;;2.90;;
5979;SDS011;3016;50.308;8.258;2023-05-07T09:27:06;14.73;;;2.97;;
5979;SDS011;3016;50.308;8.258;2023-05-07T09:30:08;16.13;;;3.40;;
5979;SDS011;3016;50.308;8.258;2023-05-07T09:33:10;15.07;;;3.20;;
5979;SDS011;3016;50.308;8.258;2023-05-07T09:36:11;14.50;;;2.80;;
5979;SDS011;3016;50.308;8.258;2023-05-07T09:39:12;14.40;;;3.00;;
5979;SDS011;3016;50.308;8.258;2023-05-07T09:42:13;16.07;;;4.10;;
5979;SDS011;3016;50.308;8.258;2023-05-07T09:45:26;15.47;;;3.07;;
5979;SDS011;3016;50.308;8.258;2023-05-07T09:48:28;15.67;;;2.77;;
5979;SDS011;3016;50.308;8.258;2023-05-07T09:51:49;14.93;;;3.27;;
5979;SDS011;3016;50.308;8.258;2023-05-07T09:54:52;14.23;;;2.90;;
5979;SDS011;3016;50.308;8.258;2023-05-07T09:57:55;14.47;;;3.10;;
5979;SDS011;3016;50.308;8.258;2023-05-07T10:00:57;15.07;;;3.70;;
5979;SDS011;3016;50.308;8.258;2023-05-07T10:03:58;13.67;;;3.30;;
5979;SDS011;3016;50.308;8.258;2023-05-07T10:07:01;13.87;;;3.47;;
5979;SDS011;3016;50.308;8.258;2023-05-07T10:10:04;13.37;;;2.70;;
5979;SDS011;3016;50.308;8.258;2023-05-07T10:13:08;17.33;;;3.20;;
5979;SDS011;3016;50.308;8.258;2023-05-07T10:16:10;15.33;;;3.20;;
5979;SDS011;3016;50.308;8.258;2023-05-07T10:19:12;13.60;;;3.17;;
5979;SDS011;3016;50.308;8.258;2023-05-07T10:22:14;14.33;;;3.20;;
5979;SDS011;3016;50.308;8.258;2023-05-07T10:25:18;13.07;;;2.27;;
5979;SDS011;3016;50.308;8.258;2023-05-07T10:28:23;14.07;;;2.87;;
5979;SDS011;3016;50.308;8.258;2023-05-07T10:31:32;14.20;;;2.73;;
5979;SDS011;3016;50.308;8.258;2023-05-07T10:34:48;13.93;;;2.73;;
5979;SDS011;3016;50.308;8.258;2023-05-07T10:37:53;15.23;;;3.33;;
5979;SDS011;3016;50.308;8.258;2023-05-07T10:40:54;15.00;;;3.07;;
5979;SDS011;3016;50.308;8.258;2023-05-07T10:43:55;14.40;;;3.50;;
5979;SDS011;3016;50.308;8.258;2023-05-07T10:47:06;13.90;;;2.83;;
5979;SDS011;3016;50.308;8.258;2023-05-07T11:02:42;14.93;;;2.90;;
5979;SDS011;3016;50.308;8.258;2023-05-07T11:09:15;14.90;;;3.43;;
5979;SDS011;3016;50.308;8.258;2023-05-07T11:12:16;15.70;;;2.87;;
5979;SDS011;3016;50.308;8.258;2023-05-07T11:15:39;14.00;;;2.93;;
5979;SDS011;3016;50.308;8.258;2023-05-07T11:18:47;13.93;;;3.10;;
5979;SDS011;3016;50.308;8.258;2023-05-07T11:21:50;14.30;;;3.20;;
5979;SDS011;3016;50.308;8.258;2023-05-07T11:24:50;16.00;;;3.20;;
5979;SDS011;3016;50.308;8.258;2023-05-07T11:27:52;13.57;;;2.97;;
5979;SDS011;3016;50.308;8.258;2023-05-07T11:30:53;13.80;;;2.77;;
5979;SDS011;3016;50.308;8.258;2023-05-07T11:33:54;15.07;;;3.30;;
5979;SDS011;3016;50.308;8.258;2023-05-07T11:36:55;17.53;;;3.20;;
5979;SDS011;3016;50.308;8.258;2023-05-07T11:40:03;16.17;;;2.97;;
5979;SDS011;3016;50.308;8.258;2023-05-07T11:43:11;14.60;;;3.20;;
5979;SDS011;3016;50.308;8.258;2023-05-07T11:46:12;17.60;;;3.83;;
5979;SDS011;3016;50.308;8.258;2023-05-07T11:49:14;18.70;;;4.03;;
5979;SDS011;3016;50.308;8.258;2023-05-07T11:52:16;15.53;;;3.20;;
5979;SDS011;3016;50.308;8.258;2023-05-07T11:55:18;16.50;;;5.00;;
5979;SDS011;3016;50.308;8.258;2023-05-07T11:58:23;18.70;;;3.63;;
5979;SDS011;3016;50.308;8.258;2023-05-07T12:01:25;14.90;;;3.40;;
5979;SDS011;3016;50.308;8.258;2023-05-07T12:04:26;14.50;;;3.77;;
5979;SDS011;3016;50.308;8.258;2023-05-07T12:07:29;14.57;;;3.80;;
5979;SDS011;3016;50.308;8.258;2023-05-07T12:10:29;14.53;;;3.60;;
5979;SDS011;3016;50.308;8.258;2023-05-07T12:13:30;15.97;;;3.50;;
5979;SDS011;3016;50.308;8.258;2023-05-07T12:16:31;15.77;;;3.73;;
5979;SDS011;3016;50.308;8.258;2023-05-07T12:19:32;14.57;;;3.70;;
5979;SDS011;3016;50.308;8.258;2023-05-07T12:22:35;15.23;;;4.13;;
5979;SDS011;3016;50.308;8.258;2023-05-07T12:25:37;14.83;;;3.67;;
5979;SDS011;3016;50.308;8.258;2023-05-07T12:28:40;14.60;;;3.50;;
5979;SDS011;3016;50.308;8.258;2023-05-07T12:31:42;15.67;;;3.80;;
5979;SDS011;3016;50.308;8.258;2023-05-07T12:34:43;17.00;;;3.47;;
5979;SDS011;3016;50.308;8.258;2023-05-07T12:37:45;14.57;;;3.60;;
5979;SDS011;3016;50.308;8.258;2023-05-07T12:40:55;14.33;;;3.20;;
5979;SDS011;3016;50.308;8.258;2023-05-07T12:43:56;15.73;;;3.43;;
5979;SDS011;3016;50.308;8.258;2023-05-07T12:46:58;16.77;;;3.93;;
5979;SDS011;3016;50.308;8.258;2023-05-07T12:50:04;14.40;;;3.97;;
5979;SDS011;3016;50.308;8.258;2023-05-07T12:53:07;15.83;;;3.43;;
5979;SDS011;3016;50.308;8.258;2023-05-07T12:56:11;15.20;;;4.40;;
5979;SDS011;3016;50.308;8.258;2023-05-07T12:59:12;15.90;;;3.63;;
5979;SDS011;3016;50.308;8.258;2023-05-07T13:02:12;14.07;;;3.17;;
5979;SDS011;3016;50.308;8.258;2023-05-07T13:05:13;14.93;;;3.37;;
5979;SDS011;3016;50.308;8.258;2023-05-07T13:08:22;15.60;;;3.80;;
5979;SDS011;3016;50.308;8.258;2023-05-07T13:11:25;15.67;;;3.90;;
5979;SDS011;3016;50.308;8.258;2023-05-07T13:14:26;18.30;;;4.67;;
5979;SDS011;3016;50.308;8.258;2023-05-07T13:17:27;15.70;;;4.20;;
5979;SDS011;3016;50.308;8.258;2023-05-07T13:20:27;15.00;;;4.40;;
5979;SDS011;3016;50.308;8.258;2023-05-07T13:23:28;15.23;;;4.27;;
5979;SDS011;3016;50.308;8.258;2023-05-07T13:26:30;15.93;;;4.00;;
5979;SDS011;3016;50.308;8.258;2023-05-07T13:29:31;15.80;;;4.20;;
5979;SDS011;3016;50.308;8.258;2023-05-07T13:32:32;18.80;;;4.60;;
5979;SDS011;3016;50.308;8.258;2023-05-07T13:35:33;15.20;;;4.20;;
5979;SDS011;3016;50.308;8.258;2023-05-07T13:38:34;17.37;;;4.60;;
5979;SDS011;3016;50.308;8.258;2023-05-07T13:41:35;16.80;;;4.40;;
5979;SDS011;3016;50.308;8.258;2023-05-07T13:44:36;15.93;;;3.70;;
5979;SDS011;3016;50.308;8.258;2023-05-07T13:47:37;16.70;;;2.57;;
5979;SDS011;3016;50.308;8.258;2023-05-07T13:50:38;15.10;;;2.57;;
5979;SDS011;3016;50.308;8.258;2023-05-07T13:53:39;14.53;;;2.50;;
5979;SDS011;3016;50.308;8.258;2023-05-07T13:56:39;15.77;;;3.43;;
5979;SDS011;3016;50.308;8.258;2023-05-07T13:59:40;15.70;;;2.80;;
5979;SDS011;3016;50.308;8.258;2023-05-07T14:02:41;18.53;;;4.00;;
5979;SDS011;3016;50.308;8.258;2023-05-07T14:05:42;15.90;;;3.87;;
5979;SDS011;3016;50.308;8.258;2023-05-07T14:08:43;16.60;;;4.30;;
5979;SDS011;3016;50.308;8.258;2023-05-07T14:11:43;16.43;;;3.97;;
5979;SDS011;3016;50.308;8.258;2023-05-07T14:14:44;17.70;;;3.50;;
5979;SDS011;3016;50.308;8.258;2023-05-07T14:17:46;14.80;;;3.00;;
5979;SDS011;3016;50.308;8.258;2023-05-07T14:20:48;16.10;;;3.97;;
5979;SDS011;3016;50.308;8.258;2023-05-07T14:23:49;18.50;;;3.90;;
5979;SDS011;3016;50.308;8.258;2023-05-07T14:26:50;16.93;;;4.90;;
5979;SDS011;3016;50.308;8.258;2023-05-07T14:29:50;17.77;;;4.30;;
5979;SDS011;3016;50.308;8.258;2023-05-07T14:32:51;16.27;;;4.00;;
5979;SDS011;3016;50.308;8.258;2023-05-07T14:35:52;16.20;;;4.10;;
5979;SDS011;3016;50.308;8.258;2023-05-07T14:38:53;17.03;;;4.50;;
5979;SDS011;3016;50.308;8.258;2023-05-07T14:41:54;16.53;;;4.57;;
5979;SDS011;3016;50.308;8.258;2023-05-07T14:44:56;16.10;;;3.93;;
5979;SDS011;3016;50.308;8.258;2023-05-07T14:47:56;16.70;;;4.33;;
5979;SDS011;3016;50.308;8.258;2023-05-07T14:50:57;17.30;;;5.07;;
5979;SDS011;3016;50.308;8.258;2023-05-07T14:53:58;17.47;;;4.77;;
5979;SDS011;3016;50.308;8.258;2023-05-07T14:57:00;18.10;;;4.00;;
5979;SDS011;3016;50.308;8.258;2023-05-07T15:00:03;17.30;;;4.30;;
5979;SDS011;3016;50.308;8.258;2023-05-07T15:03:08;17.00;;;4.10;;
5979;SDS011;3016;50.308;8.258;2023-05-07T15:06:10;16.53;;;4.50;;
5979;SDS011;3016;50.308;8.258;2023-05-07T15:09:11;17.90;;;5.50;;
5979;SDS011;3016;50.308;8.258;2023-05-07T15:12:12;18.23;;;5.43;;
5979;SDS011;3016;50.308;8.258;2023-05-07T15:15:13;19.00;;;5.80;;
5979;SDS011;3016;50.308;8.258;2023-05-07T15:18:15;16.30;;;4.20;;
5979;SDS011;3016;50.308;8.258;2023-05-07T15:21:16;17.20;;;4.10;;
5979;SDS011;3016;50.308;8.258;2023-05-07T15:24:16;16.50;;;4.20;;
5979;SDS011;3016;50.308;8.258;2023-05-07T15:27:17;19.80;;;4.30;;
5979;SDS011;3016;50.308;8.258;2023-05-07T15:30:18;16.87;;;4.10;;
5979;SDS011;3016;50.308;8.258;2023-05-07T15:33:19;16.40;;;4.00;;
5979;SDS011;3016;50.308;8.258;2023-05-07T15:36:20;15.97;;;3.80;;
5979;SDS011;3016;50.308;8.258;2023-05-07T15:39:21;15.37;;;3.60;;
5979;SDS011;3016;50.308;8.258;2023-05-07T15:42:22;17.43;;;4.30;;
5979;SDS011;3016;50.308;8.258;2023-05-07T15:45:22;15.77;;;3.37;;
5979;SDS011;3016;50.308;8.258;2023-05-07T15:48:24;17.20;;;4.30;;
5979;SDS011;3016;50.308;8.258;2023-05-07T15:51:24;16.60;;;3.60;;
5979;SDS011;3016;50.308;8.258;2023-05-07T15:54:25;16.90;;;3.93;;
5979;SDS011;3016;50.308;8.258;2023-05-07T15:57:26;17.43;;;4.23;;
5979;SDS011;3016;50.308;8.258;2023-05-07T16:00:27;16.80;;;3.20;;
5979;SDS011;3016;50.308;8.258;2023-05-07T16:03:28;17.50;;;4.40;;
5979;SDS011;3016;50.308;8.258;2023-05-07T16:06:29;16.20;;;3.40;;
5979;SDS011;3016;50.308;8.258;2023-05-07T16:09:30;16.20;;;4.00;;
5979;SDS011;3016;50.308;8.258;2023-05-07T16:12:31;15.77;;;3.50;;
5979;SDS011;3016;50.308;8.258;2023-05-07T16:15:32;16.77;;;4.10;;
5979;SDS011;3016;50.308;8.258;2023-05-07T16:18:33;16.60;;;3.50;;
5979;SDS011;3016;50.308;8.258;2023-05-07T16:21:35;19.17;;;4.27;;
5979;SDS011;3016;50.308;8.258;2023-05-07T16:24:37;16.33;;;3.37;;
5979;SDS011;3016;50.308;8.258;2023-05-07T16:27:38;16.20;;;3.47;;
5979;SDS011;3016;50.308;8.258;2023-05-07T16:30:39;16.03;;;2.97;;
5979;SDS011;3016;50.308;8.258;2023-05-07T16:33:40;15.47;;;3.20;;
5979;SDS011;3016;50.308;8.258;2023-05-07T16:36:40;16.90;;;3.50;;
5979;SDS011;3016;50.308;8.258;2023-05-07T16:39:41;15.83;;;3.17;;
5979;SDS011;3016;50.308;8.258;2023-05-07T16:42:42;16.53;;;3.50;;
5979;SDS011;3016;50.308;8.258;2023-05-07T16:45:43;15.47;;;3.50;;
5979;SDS011;3016;50.308;8.258;2023-05-07T16:48:44;15.50;;;3.13;;
5979;SDS011;3016;50.308;8.258;2023-05-07T16:51:45;15.57;;;3.30;;
5979;SDS011;3016;50.308;8.258;2023-05-07T16:54:46;16.10;;;3.20;;
5979;SDS011;3016;50.308;8.258;2023-05-07T16:57:46;16.30;;;2.60;;
5979;SDS011;3016;50.308;8.258;2023-05-07T17:00:47;17.90;;;3.20;;
5979;SDS011;3016;50.308;8.258;2023-05-07T17:03:48;16.77;;;3.20;;
5979;SDS011;3016;50.308;8.258;2023-05-07T17:06:49;17.57;;;3.23;;
5979;SDS011;3016;50.308;8.258;2023-05-07T17:09:50;17.00;;;2.70;;
5979;SDS011;3016;50.308;8.258;2023-05-07T17:12:51;16.30;;;3.00;;
5979;SDS011;3016;50.308;8.258;2023-05-07T17:15:51;15.07;;;2.63;;
5979;SDS011;3016;50.308;8.258;2023-05-07T17:18:52;16.30;;;4.60;;
5979;SDS011;3016;50.308;8.258;2023-05-07T17:21:52;15.50;;;3.30;;
5979;SDS011;3016;50.308;8.258;2023-05-07T17:24:53;15.50;;;3.37;;
5979;SDS011;3016;50.308;8.258;2023-05-07T17:27:54;16.50;;;3.43;;
5979;SDS011;3016;50.308;8.258;2023-05-07T17:30:55;18.40;;;3.43;;
5979;SDS011;3016;50.308;8.258;2023-05-07T17:33:56;16.13;;;4.20;;
5979;SDS011;3016;50.308;8.258;2023-05-07T17:36:57;16.60;;;3.70;;
5979;SDS011;3016;50.308;8.258;2023-05-07T17:39:59;19.00;;;3.90;;
5979;SDS011;3016;50.308;8.258;2023-05-07T17:43:00;19.90;;;4.47;;
5979;SDS011;3016;50.308;8.258;2023-05-07T17:46:01;16.50;;;3.77;;
5979;SDS011;3016;50.308;8.258;2023-05-07T17:49:02;19.17;;;4.63;;
5979;SDS011;3016;50.308;8.258;2023-05-07T17:52:03;16.87;;;4.70;;
5979;SDS011;3016;50.308;8.258;2023-05-07T17:55:04;17.53;;;4.40;;
5979;SDS011;3016;50.308;8.258;2023-05-07T17:58:05;16.97;;;4.30;;
5979;SDS011;3016;50.308;8.258;2023-05-07T18:01:06;18.53;;;4.90;;
5979;SDS011;3016;50.308;8.258;2023-05-07T18:04:07;17.13;;;4.57;;
5979;SDS011;3016;50.308;8.258;2023-05-07T18:07:07;16.90;;;4.40;;
5979;SDS011;3016;50.308;8.258;2023-05-07T18:10:08;17.00;;;4.37;;
5979;SDS011;3016;50.308;8.258;2023-05-07T18:13:09;18.27;;;5.30;;
5979;SDS011;3016;50.308;8.258;2023-05-07T18:16:10;17.60;;;4.70;;
5979;SDS011;3016;50.308;8.258;2023-05-07T18:19:11;17.30;;;5.03;;
5979;SDS011;3016;50.308;8.258;2023-05-07T18:22:11;17.30;;;4.97;;
5979;SDS011;3016;50.308;8.258;2023-05-07T18:25:12;21.57;;;5.27;;
5979;SDS011;3016;50.308;8.258;2023-05-07T18:28:13;18.60;;;4.80;;
5979;SDS011;3016;50.308;8.258;2023-05-07T18:31:13;16.90;;;4.93;;
5979;SDS011;3016;50.308;8.258;2023-05-07T18:34:14;19.20;;;6.63;;
5979;SDS011;3016;50.308;8.258;2023-05-07T18:37:15;17.40;;;5.83;;
5979;SDS011;3016;50.308;8.258;2023-05-07T18:40:16;18.90;;;5.90;;
5979;SDS011;3016;50.308;8.258;2023-05-07T18:43:19;19.37;;;6.57;;
5979;SDS011;3016;50.308;8.258;2023-05-07T18:46:20;21.40;;;7.93;;